Flight Track Log - Related Links

Times and Time Zones

All times are in EDT time to prevent confusion due to time zone crossing. See the CES5159 flight status page for this flight to view local times or setup timezone preferences in your user account.

Time Position Orientation Groundspeed Altitude Reporting Facility
EDT Latitude Longitude Course Direction KTS MPH feet Rate Location/Type
Sun 12:22:54 PM 40.1142 116.6317 29° Northeast 148 170 2,900  Level FlightAware ADS-B
Sun 12:23:04 PM 40.1203 116.6362 29° Northeast 150 173 3,200 1,680 Climbing FlightAware ADS-B
Sun 12:23:19 PM 40.1310 116.6439 29° Northeast 157 181 3,600 1,448 Climbing FlightAware ADS-B
Sun 12:23:33 PM 40.1413 116.6511 28° Northeast 175 201 3,900 1,200 Climbing FlightAware ADS-B
Sun 12:23:39 PM 40.1447 116.6538 31° Northeast 183 211 4,000 750 Climbing FlightAware ADS-B
Sun 12:23:49 PM 40.1495 116.6573 37° Northeast 194 223 4,100 632 Climbing FlightAware ADS-B
Sun 12:23:58 PM 40.1610 116.6655 29° Northeast 216 249 4,200 316 Climbing FlightAware ADS-B
Sun 12:24:08 PM 40.1688 116.6729 36° Northeast 232 267 4,200  Level FlightAware ADS-B
Sun 12:24:18 PM 40.1739 116.6810 50° Northeast 245 282 4,200  Level FlightAware ADS-B
Sun 12:24:27 PM 40.1787 116.6948 360° North 245 282 4,200  Level FlightAware ADS-B
Sun 12:24:39 PM 40.1818 116.7199 81° East 270 311 4,200 571 Level FlightAware ADS-B
Sun 12:24:48 PM 40.1832 116.7378 84° East 272 313 4,400 1,200 Climbing FlightAware ADS-B
Sun 12:24:54 PM 40.1837 116.7445 84° East 273 314 4,500 900 Climbing FlightAware ADS-B
Sun 12:25:08 PM 40.1852 116.7671 86° East 273 314 4,700 947 Climbing FlightAware ADS-B
Sun 12:25:13 PM 40.1861 116.7788 85° East 274 315 4,800 1,091 Climbing FlightAware ADS-B
Sun 12:25:19 PM 40.1866 116.7848 84° East 274 315 4,900 1,143 Climbing FlightAware ADS-B
Sun 12:25:34 PM 40.1890 116.8152 84° East 276 318 5,200 1,263 Climbing FlightAware ADS-B
Sun 12:25:38 PM 40.1895 116.8204 83° East 275 316 5,300 1,600 Climbing FlightAware ADS-B
Sun 12:25:49 PM 40.1909 116.8394 85° East 276 318 5,600 1,600 Climbing FlightAware ADS-B
Sun 12:25:53 PM 40.1919 116.8518 84° East 276 318 5,700 1,333 Climbing FlightAware ADS-B
Sun 12:25:58 PM 40.1926 116.8607 84° East 275 316 5,800 1,800 Climbing FlightAware ADS-B
Sun 12:26:03 PM 40.1933 116.8692 84° East 276 318 6,000 2,182 Climbing FlightAware ADS-B
Sun 12:26:09 PM 40.1940 116.8782 84° East 278 320 6,200 2,625 Climbing FlightAware ADS-B
Sun 12:26:19 PM 40.1950 116.8902 86° East 280 322 6,700 3,360 Climbing FlightAware ADS-B
Sun 12:26:34 PM 40.1978 116.9230 84° East 283 326 7,600 3,474 Climbing FlightAware ADS-B
Sun 12:26:38 PM 40.1983 116.9290 84° East 283 326 7,800 3,000 Climbing FlightAware ADS-B
Sun 12:26:44 PM 40.1995 116.9414 83° East 283 326 8,100 3,200 Climbing FlightAware ADS-B
Sun 12:26:53 PM 40.2007 116.9584 85° East 287 330 8,600 3,200 Climbing FlightAware ADS-B
Sun 12:26:59 PM 40.2005 116.9659 92° East 287 330 8,900 2,727 Climbing FlightAware ADS-B
Sun 12:27:04 PM 40.1993 116.9766 98° East 287 330 9,100 3,000 Climbing FlightAware ADS-B
Sun 12:27:09 PM 40.1976 116.9852 104° East 289 333 9,400 3,333 Climbing FlightAware ADS-B
Sun 12:27:13 PM 40.1960 116.9901 112° Southeast 289 333 9,600 2,400 Climbing FlightAware ADS-B
Sun 12:27:19 PM 40.1912 117.0018 118° Southeast 289 333 9,800 2,182 Climbing FlightAware ADS-B
Sun 12:27:24 PM 40.1871 117.0087 128° Southeast 289 333 10,000 2,769 Climbing FlightAware ADS-B
Sun 12:27:32 PM 40.1802 117.0184 360° North 289 333 10,400 2,160 Climbing FlightAware ADS-B
Sun 12:28:14 PM 40.1356 117.0778 134° Southeast 322 371 11,800 2,118 Climbing FlightAware ADS-B
Sun 12:28:23 PM 40.1260 117.0906 135° Southeast 325 374 12,200 2,842 Climbing FlightAware ADS-B
Sun 12:28:33 PM 40.1130 117.1077 135° Southeast 328 377 12,700 2,571 Climbing FlightAware ADS-B
Sun 12:28:44 PM 40.1027 117.1214 134° Southeast 329 379 13,100 2,400 Climbing FlightAware ADS-B
Sun 12:28:53 PM 40.0925 117.1350 134° Southeast 331 381 13,500 2,700 Climbing FlightAware ADS-B
Sun 12:29:04 PM 40.0786 117.1528 135° Southeast 335 386 14,000 2,850 Climbing FlightAware ADS-B
Sun 12:29:33 PM 40.0452 117.1973 134° Southeast 339 390 15,400 2,850 Climbing FlightAware ADS-B
Sun 12:29:44 PM 40.0328 117.2133 135° Southeast 342 394 15,900 2,550 Climbing FlightAware ADS-B
Sun 12:30:13 PM 39.9976 117.2598 134° Southeast 346 398 17,100 2,308 Climbing FlightAware ADS-B
Sun 12:30:23 PM 39.9849 117.2763 135° Southeast 354 407 17,400 2,286 Climbing FlightAware ADS-B
Sun 12:30:34 PM 39.9727 117.2924 135° Southeast 352 405 17,900 2,700 Climbing FlightAware ADS-B
Sun 12:30:43 PM 39.9604 117.3086 135° Southeast 358 412 18,300 2,100 Climbing FlightAware ADS-B
Sun 12:30:54 PM 39.9480 117.3245 135° Southeast 362 417 18,600 1,200 Climbing FlightAware ADS-B
Sun 12:31:03 PM 39.9349 117.3415 135° Southeast 371 427 18,700 162 Climbing FlightAware ADS-B
Sun 12:31:31 PM 39.8975 117.3765 360° North 390 449 18,700 277 Level FlightAware ADS-B
Sun 12:32:08 PM 39.8304 117.3868 181° South 392 451 19,000 750 Climbing FlightAware ADS-B
Sun 12:32:19 PM 39.8124 117.3864 181° South 400 460 19,300 2,600 Climbing FlightAware ADS-B
Sun 12:32:38 PM 39.7765 117.3856 181° South 395 455 20,300 2,483 Climbing FlightAware ADS-B
Sun 12:32:48 PM 39.7592 117.3853 181° South 399 459 20,500 1,200 Climbing FlightAware ADS-B
Sun 12:32:58 PM 39.7448 117.3849 181° South 405 466 20,700 857 Climbing FlightAware ADS-B
Sun 12:33:09 PM 39.7229 117.3846 181° South 410 472 20,800 2,250 Climbing FlightAware ADS-B
Sun 12:33:38 PM 39.6685 117.3839 180° South 401 461 22,200 2,400 Climbing FlightAware ADS-B
Sun 12:33:49 PM 39.6500 117.3837 180° South 402 463 22,400 585 Climbing FlightAware ADS-B
Sun 12:34:19 PM 39.5954 117.3829 181° South 405 466 22,600 1,108 Climbing FlightAware ADS-B
Sun 12:34:54 PM 39.5309 117.3819 180° South 401 461 23,600 1,846 Climbing FlightAware ADS-B
Sun 12:35:24 PM 39.4775 117.3813 180° South 396 456 24,600 1,959 Climbing FlightAware ADS-B
Sun 12:35:43 PM 39.4389 117.3805 181° South 400 460 25,200 1,600 Climbing FlightAware ADS-B
Sun 12:35:54 PM 39.4203 117.3801 181° South 400 460 25,400 1,024 Climbing FlightAware ADS-B
Sun 12:36:24 PM 39.3631 117.3789 181° South 409 471 25,900 1,231 Climbing FlightAware ADS-B
Sun 12:36:33 PM 39.3442 117.3786 181° South 409 471 26,200 1,579 Climbing FlightAware ADS-B
Sun 12:36:43 PM 39.3276 117.3784 180° South 409 471 26,400 1,143 Climbing FlightAware ADS-B
Sun 12:36:54 PM 39.3046 117.3781 181° South 416 479 26,600 360 Climbing FlightAware ADS-B
Sun 12:37:33 PM 39.2260 117.3766 181° South 442 509 26,700 367 Climbing FlightAware ADS-B
Sun 12:37:43 PM 39.2023 117.3760 181° South 445 512 26,900 2,100 Climbing FlightAware ADS-B
Sun 12:37:53 PM 39.1806 117.3758 180° South 439 505 27,400 2,857 Climbing FlightAware ADS-B
Sun 12:38:04 PM 39.1597 117.3757 180° South 435 501 27,900 2,200 Climbing FlightAware ADS-B
Sun 12:38:23 PM 39.1211 117.3752 181° South 430 495 28,500 1,800 Climbing FlightAware ADS-B
Sun 12:38:34 PM 39.0979 117.3750 180° South 432 497 28,800 1,600 Climbing FlightAware ADS-B
Sun 12:38:53 PM 39.0559 117.3742 181° South 430 495 29,300 1,400 Climbing FlightAware ADS-B
Sun 12:39:04 PM 39.0385 117.3733 182° South 430 495 29,500 1,800 Climbing FlightAware ADS-B
Sun 12:39:13 PM 39.0201 117.3719 183° South 429 494 29,900 1,800 Climbing FlightAware ADS-B
Sun 12:39:24 PM 38.9960 117.3699 184° South 428 493 30,100 1,600 Climbing FlightAware ADS-B
Sun 12:39:43 PM 38.9556 117.3661 184° South 424 488 30,700 1,556 Climbing FlightAware ADS-B
Sun 12:39:51 PM 38.9436 117.3650 360° North 422 486 30,800 571 Climbing FlightAware ADS-B
Sun 12:40:04 PM 38.9161 117.3625 184° South 430 495 30,900 545 Climbing FlightAware ADS-B
Sun 12:40:24 PM 38.8773 117.3626 177° South 437 503 31,100 300 Climbing FlightAware ADS-B
Sun 12:40:44 PM 38.8286 117.3767 167° South 433 498 31,100  Level FlightAware ADS-B
Sun 12:41:14 PM 38.7713 117.4165 152° Southeast 433 498 31,100  Level FlightAware ADS-B
Sun 12:41:44 PM 38.7168 117.4828 136° Southeast 433 498 31,100 277 Level FlightAware ADS-B
Sun 12:42:19 PM 38.6640 117.5624 130° Southeast 433 498 31,400 831 Climbing FlightAware ADS-B
Sun 12:42:49 PM 38.6183 117.6330 129° Southeast 440 506 32,000 1,347 Climbing FlightAware ADS-B
Sun 12:43:08 PM 38.5881 117.6792 130° Southeast 440 506 32,500 1,600 Climbing FlightAware ADS-B
Sun 12:43:19 PM 38.5713 117.7046 130° Southeast 437 503 32,800 1,500 Climbing FlightAware ADS-B
Sun 12:43:28 PM 38.5572 117.7264 130° Southeast 436 502 33,000 900 Climbing FlightAware ADS-B
Sun 12:43:39 PM 38.5416 117.7501 130° Southeast 438 504 33,100 162 Climbing FlightAware ADS-B
Sun 12:44:05 PM 38.5017 117.8100 130° Southeast 438 504 33,100  Level FlightAware ADS-B
Sun 12:44:08 PM 38.4942 117.8218 129° Southeast 438 504 33,100  Level FlightAware ADS-B
Sun 12:44:35 PM 38.4535 117.8833 130° Southeast 437 503 33,100  Level FlightAware ADS-B
Sun 12:44:38 PM 38.4475 117.8920 131° Southeast 437 503 33,100  Level FlightAware ADS-B
Sun 12:45:06 PM 38.4075 117.9533 130° Southeast 435 501 33,100  Level FlightAware ADS-B
Sun 12:45:08 PM 38.4025 117.9607 131° Southeast 434 499 33,100  Level FlightAware ADS-B
Sun 12:45:33 PM 38.3701 118.0119 360° North 435 501 33,100  Level FlightAware ADS-B
Sun 12:45:39 PM 38.3575 118.0335 126° Southeast 434 499 33,100  Level FlightAware ADS-B
Sun 12:46:08 PM 38.3152 118.1071 126° Southeast 435 501 33,100  Level FlightAware ADS-B
Sun 12:46:38 PM 38.2699 118.1772 129° Southeast 437 503 33,100  Level FlightAware ADS-B
Sun 12:46:50 PM 38.2518 118.2036 131° Southeast 438 504 33,100 -94,588 Level FlightAware ADS-B
Sun 12:46:55 PM 38.2638 118.1862 360° North 437 503 6,300 889 Descending FlightAware ADS-B
Sun 12:47:44 PM 38.1570 118.3152 136° Southeast 440 506 33,900 28,655 Climbing FlightAware ADS-B
Sun 12:47:53 PM 38.1452 118.3261 145° Southeast 440 506 34,000 1,000 Climbing FlightAware ADS-B
Sun 12:48:32 PM 38.0582 118.3816 360° North 440 506 34,700 1,200 Climbing FlightAware ADS-B
Sun 12:48:43 PM 38.0357 118.3911 345° North 439 505 35,000 1,000 Climbing FlightAware ADS-B
Sun 12:48:56 PM 38.0077 118.4003 166° South 442 509 35,100 -34,800 Climbing FlightAware ADS-B
Sun 12:49:08 PM 37.9839 118.4072 167° South 436 502 20,500  Descending FlightAware ADS-B
Sun 12:49:17 PM 37.9600 118.4123 360° North 433 498 35,100 21,900 Climbing FlightAware ADS-B
Sun 12:49:48 PM 37.8994 118.4202 175° South 441 507 35,100  Level FlightAware ADS-B
Sun 12:49:54 PM 37.8788 118.4224 360° North 440 506 35,100  Level FlightAware ADS-B
Sun 12:50:41 PM 37.7731 118.4358 360° North 441 507 35,100  Level FlightAware ADS-B
Sun 12:51:25 PM 37.6776 118.4475 175° South 444 511 35,100  Level FlightAware ADS-B
Sun 12:51:55 PM 37.6077 118.4541 176° South 446 513 35,100 100 Level FlightAware ADS-B
Sun 12:52:25 PM 37.5386 118.4595 176° South 456 525 35,200 100 Climbing FlightAware ADS-B
Sun 12:52:55 PM 37.4719 118.4553 183° South 447 514 35,200 -100 Level FlightAware ADS-B
Sun 12:53:25 PM 37.4088 118.4374 193° South 444 511 35,100 -188 Descending FlightAware ADS-B
Sun 12:53:27 PM 37.4058 118.4364 360° North 441 507 35,100 -109 Level FlightAware ADS-B
Sun 12:54:20 PM 37.2958 118.4072 192° South 439 505 35,000  Descending FlightAware ADS-B
Sun 12:54:50 PM 37.2309 118.3898 192° South 440 506 35,100 100 Climbing FlightAware ADS-B
Sun 12:55:20 PM 37.1702 118.3732 192° South 446 513 35,100  Level FlightAware ADS-B
Sun 12:55:50 PM 37.1068 118.3557 192° South 449 517 35,100  Level FlightAware ADS-B
Sun 12:55:53 PM 37.0998 118.3538 192° South 449 517 35,100  Level FlightAware ADS-B
Sun 12:56:20 PM 37.0435 118.3385 192° South 446 513 35,100  Level FlightAware ADS-B
Sun 12:56:50 PM 36.9829 118.3219 192° South 460 529 35,100  Level FlightAware ADS-B
Sun 12:56:53 PM 36.9776 118.3205 192° South 460 529 35,100 600 Level FlightAware ADS-B
Sun 12:57:00 PM 36.9628 118.3162 193° South 455 524 35,200  Climbing FlightAware ADS-B
Sun 12:57:16 PM 36.9295 118.3073 192° South 447 514 35,100 -261 Descending FlightAware ADS-B
Sun 12:57:23 PM 36.9136 118.3028 193° South 445 512 35,100  Level FlightAware ADS-B
Sun 12:57:45 PM 36.8694 118.2908 192° South 447 514 35,100  Level FlightAware ADS-B
Sun 12:57:54 PM 36.8562 118.2872 192° South 445 512 35,100  Level FlightAware ADS-B
Sun 12:58:15 PM 36.8081 118.2738 193° South 446 513 35,100  Level FlightAware ADS-B
Sun 12:58:22 PM 36.8008 118.2719 360° North 448 516 35,100 -4,105 Level FlightAware ADS-B
Sun 12:58:34 PM 36.7882 118.2685 192° South 448 516 33,800 -286 Descending FlightAware ADS-B
Sun 12:58:43 PM 36.7510 118.2584 192° South 448 516 35,000 3,882 Climbing FlightAware ADS-B
Sun 12:58:51 PM 36.7352 118.2541 192° South 443 510 34,900 -1,412 Descending FlightAware ADS-B
Sun 12:59:00 PM 36.7153 118.2486 192° South 443 510 34,600 -1,895 Descending FlightAware ADS-B
Sun 12:59:10 PM 36.6948 118.2431 192° South 441 507 34,300 -1,800 Descending FlightAware ADS-B
Sun 12:59:20 PM 36.6749 118.2376 192° South 444 511 34,000 -2,118 Descending FlightAware ADS-B
Sun 12:59:27 PM 36.6590 118.2333 360° North 444 511 33,700 -2,100 Descending FlightAware ADS-B
Sun 12:59:40 PM 36.6329 118.2263 192° South 444 511 33,300 -1,826 Descending FlightAware ADS-B
Sun 12:59:50 PM 36.6131 118.2208 193° South 447 514 33,000 -1,742 Descending FlightAware ADS-B
Sun 01:00:11 PM 36.5707 118.2093 192° South 447 514 32,400 -1,800 Descending FlightAware ADS-B
Sun 01:00:20 PM 36.5503 118.2040 192° South 448 516 32,100 -1,579 Descending FlightAware ADS-B
Sun 01:00:30 PM 36.5324 118.1992 192° South 448 516 31,900 -1,800 Descending FlightAware ADS-B
Sun 01:00:40 PM 36.5094 118.1930 192° South 448 516 31,500 -1,800 Descending FlightAware ADS-B
Sun 01:00:50 PM 36.4887 118.1873 192° South 448 516 31,300 -1,800 Descending FlightAware ADS-B
Sun 01:01:00 PM 36.4670 118.1816 192° South 446 513 30,900 -2,118 Descending FlightAware ADS-B
Sun 01:01:07 PM 36.4537 118.1778 360° North 448 516 30,700 -1,800 Descending FlightAware ADS-B
Sun 01:01:40 PM 36.3846 118.1595 192° South 448 516 29,700 -1,773 Descending FlightAware ADS-B
Sun 01:01:51 PM 36.3646 118.1542 192° South 446 513 29,400 -1,600 Descending FlightAware ADS-B
Sun 01:02:10 PM 36.3237 118.1432 192° South 442 509 28,900 -1,862 Descending FlightAware ADS-B
Sun 01:02:20 PM 36.3031 118.1377 192° South 439 505 28,500 -2,100 Descending FlightAware ADS-B
Sun 01:02:30 PM 36.2825 118.1322 192° South 436 502 28,200 -1,500 Descending FlightAware ADS-B
Sun 01:02:40 PM 36.2622 118.1269 192° South 434 499 28,000 -1,500 Descending FlightAware ADS-B
Sun 01:02:50 PM 36.2444 118.1221 192° South 431 496 27,700 -1,800 Descending FlightAware ADS-B
Sun 01:03:00 PM 36.2245 118.1166 193° South 429 494 27,400 -1,800 Descending FlightAware ADS-B
Sun 01:03:10 PM 36.2039 118.1111 192° South 430 495 27,100 -1,800 Descending FlightAware ADS-B
Sun 01:03:20 PM 36.1845 118.1059 192° South 428 493 26,800 -1,200 Descending FlightAware ADS-B
Sun 01:03:30 PM 36.1651 118.1008 192° South 424 488 26,700 -632 Descending FlightAware ADS-B
Sun 01:03:39 PM 36.1505 118.0968 360° North 425 489 26,600 -667 Descending FlightAware ADS-B
Sun 01:04:15 PM 36.0758 118.0764 193° South 443 510 26,200 -783 Descending FlightAware ADS-B
Sun 01:04:25 PM 36.0542 118.0707 192° South 447 514 26,000 -857 Descending FlightAware ADS-B
Sun 01:04:36 PM 36.0336 118.0651 192° South 449 517 25,900 -900 Descending FlightAware ADS-B
Sun 01:04:45 PM 36.0152 118.0601 192° South 447 514 25,700 -947 Descending FlightAware ADS-B
Sun 01:04:55 PM 35.9955 118.0550 192° South 446 513 25,600 -750 Descending FlightAware ADS-B
Sun 01:05:01 PM 35.9849 118.0522 360° North 443 510 25,500 -1,000 Descending FlightAware ADS-B
Sun 01:07:00 PM 35.8120 118.1544 154° Southeast  Level Estimated
Sun 01:08:00 PM 35.7248 118.2058 154° Southeast  Level Estimated
Sun 01:09:00 PM 35.6376 118.2570 154° Southeast  Level Estimated
Sun 01:10:00 PM 35.5504 118.3082 154° Southeast  Level Estimated
Sun 01:11:00 PM 35.4632 118.3592 155° Southeast  Level Estimated
Sun 01:12:00 PM 35.3759 118.4101 155° Southeast  Level Estimated
Sun 01:13:00 PM 35.2886 118.4609 155° Southeast  Level Estimated
Sun 01:14:00 PM 35.2013 118.5116 155° Southeast  Level Estimated
Sun 01:15:00 PM 35.1140 118.5622 155° Southeast  Level Estimated
Sun 01:16:00 PM 35.0266 118.6126 155° Southeast  Level Estimated
Sun 01:17:00 PM 34.9393 118.6630 155° Southeast  Level Estimated
Sun 01:18:00 PM 34.8519 118.7133 155° Southeast  Level Estimated
Sun 01:19:00 PM 34.7630 118.7643 155° Southeast  Level Estimated
Sun 01:20:00 PM 34.6741 118.8151 155° Southeast  Level Estimated
Sun 01:21:00 PM 34.5851 118.8659 155° Southeast  Level Estimated
Sun 01:22:00 PM 34.5717 118.8736 155° Southeast  Level Estimated
Sun 01:23:00 PM 34.5717 118.8736 North  Level Estimated
Sun 01:24:00 PM 34.5717 118.8736 North  Level Estimated
Sun 01:25:00 PM 34.5717 118.8736 North  Level Estimated
Sun 01:26:00 PM 34.5717 118.8736 North  Level Estimated
Sun 01:27:00 PM 34.5717 118.8736 North  Level Estimated
Sun 01:28:00 PM 34.5717 118.8736 North  Level Estimated
Sun 01:29:00 PM 34.5717 118.8736 North  Level Estimated
Sun 01:30:00 PM 34.5717 118.8736 North  Level Estimated
Sun 01:31:00 PM 34.5717 118.8736 North  Level Estimated
Sun 01:32:00 PM 34.5717 118.8736 North  Level Estimated
Sun 01:33:00 PM 34.5717 118.8736 North  Level Estimated

Login

Don't have an account? Register now (free) for customized features, flight alerts, and more!